Time;durP1;ratioP1;P1;durP2;ratioP2;P2;SDS_P1;SDS_P2;PMS_P1;PMS_P2;Temp;Humidity;BMP_temperature;BMP_pressure;BME280_temperature;BME280_humidity;BME280_pressure;Samples;Min_cycle;Max_cycle;Signal;HPM_P1;HPM_P2
2021/09/25 00:00:06;;;;;;;7.53;3.03;;;20.10;89.70;;;;;;4227114;27;20051;-63
2021/09/25 00:02:28;;;;;;;7.22;2.72;;;20.10;90.00;;;;;;4227127;27;20039;-63
2021/09/25 00:04:50;;;;;;;7.20;3.25;;;20.10;90.00;;;;;;4227213;27;20561;-63
2021/09/25 00:07:12;;;;;;;5.53;2.80;;;20.10;90.00;;;;;;4227344;27;20043;-63
2021/09/25 00:09:34;;;;;;;4.28;3.22;;;20.10;90.00;;;;;;4226980;27;20087;-63
2021/09/25 00:11:57;;;;;;;6.10;3.10;;;20.10;90.00;;;;;;4226928;28;20048;-63
2021/09/25 00:14:19;;;;;;;9.40;3.17;;;20.00;90.10;;;;;;4226773;27;20055;-63
2021/09/25 00:16:41;;;;;;;4.55;2.67;;;20.10;90.00;;;;;;4226909;27;20055;-63
2021/09/25 00:19:04;;;;;;;10.73;3.90;;;20.10;90.00;;;;;;4227029;27;20414;-63
2021/09/25 00:21:27;;;;;;;6.88;2.97;;;20.00;90.00;;;;;;4226919;27;20417;-64
2021/09/25 00:23:49;;;;;;;6.50;3.15;;;20.10;90.00;;;;;;4226795;27;20044;-64
2021/09/25 00:26:11;;;;;;;10.60;3.05;;;20.00;90.10;;;;;;4226767;27;20052;-64
2021/09/25 00:28:34;;;;;;;7.13;3.38;;;20.00;90.10;;;;;;4226410;27;20058;-64
2021/09/25 00:30:57;;;;;;;8.30;3.70;;;20.00;90.10;;;;;;4226628;27;20507;-64
2021/09/25 00:33:19;;;;;;;7.63;3.20;;;20.00;90.10;;;;;;4226666;27;20054;-64
2021/09/25 00:35:41;;;;;;;7.00;3.50;;;20.00;90.10;;;;;;4226859;27;20480;-64
2021/09/25 00:38:03;;;;;;;6.90;3.15;;;20.00;90.20;;;;;;4226347;27;20039;-65
2021/09/25 00:40:25;;;;;;;6.72;3.22;;;20.00;90.10;;;;;;4226439;27;20130;-63
2021/09/25 00:42:48;;;;;;;9.20;4.32;;;20.00;90.20;;;;;;4226778;27;20438;-63
2021/09/25 00:45:12;;;;;;;7.95;4.13;;;20.00;90.30;;;;;;4226483;27;20096;-63
2021/09/25 00:47:35;;;;;;;6.57;3.63;;;20.00;90.30;;;;;;4226887;27;20063;-63
2021/09/25 00:49:57;;;;;;;8.07;3.22;;;20.00;90.30;;;;;;4226264;27;20055;-63
2021/09/25 00:52:19;;;;;;;7.47;3.50;;;20.00;90.20;;;;;;4212127;28;20139;-63
2021/09/25 00:54:41;;;;;;;5.68;3.60;;;20.00;90.30;;;;;;4209670;28;20418;-64
2021/09/25 00:57:04;;;;;;;9.30;3.63;;;20.00;90.30;;;;;;4209855;28;20059;-63
2021/09/25 00:59:27;;;;;;;10.43;3.88;;;20.00;90.40;;;;;;4209569;28;20052;-63
2021/09/25 01:01:50;;;;;;;5.93;3.67;;;20.00;90.50;;;;;;4209174;28;20050;-63
2021/09/25 01:04:13;;;;;;;7.85;3.50;;;20.00;90.40;;;;;;4209281;28;20403;-63
2021/09/25 01:06:36;;;;;;;7.45;3.63;;;20.00;90.40;;;;;;4209550;28;20040;-63
2021/09/25 01:08:58;;;;;;;8.95;4.13;;;20.00;90.40;;;;;;4209043;28;20075;-63
2021/09/25 01:11:21;;;;;;;10.18;4.05;;;20.00;90.40;;;;;;4209337;28;20055;-64
2021/09/25 01:13:42;;;;;;;6.55;4.30;;;20.00;90.50;;;;;;4209351;28;20413;-63
2021/09/25 01:16:05;;;;;;;6.25;3.78;;;20.00;90.50;;;;;;4209082;28;20048;-64
2021/09/25 01:18:30;;;;;;;5.97;3.72;;;20.00;90.50;;;;;;4208717;28;20072;-63
2021/09/25 01:20:52;;;;;;;6.22;3.78;;;20.00;90.50;;;;;;4209343;28;20478;-63
2021/09/25 01:23:16;;;;;;;8.57;3.38;;;20.00;90.50;;;;;;4209171;28;20059;-63
2021/09/25 01:25:39;;;;;;;5.65;3.40;;;20.00;90.60;;;;;;4209133;28;20052;-64
2021/09/25 01:28:02;;;;;;;11.57;4.20;;;20.00;90.60;;;;;;4208966;28;20048;-64
2021/09/25 01:30:24;;;;;;;8.38;4.28;;;20.00;90.60;;;;;;4199798;28;20041;-63
2021/09/25 01:32:48;;;;;;;9.10;3.83;;;20.00;90.60;;;;;;4209285;28;20418;-64
2021/09/25 01:35:12;;;;;;;8.75;3.90;;;20.00;90.60;;;;;;4209106;28;20057;-64
2021/09/25 01:37:34;;;;;;;10.57;4.10;;;20.00;90.50;;;;;;4236579;27;20046;-64
2021/09/25 01:39:58;;;;;;;8.57;4.25;;;20.00;90.70;;;;;;4208449;28;20059;-63
2021/09/25 01:42:20;;;;;;;8.02;3.40;;;20.00;90.70;;;;;;4208916;28;20536;-63
2021/09/25 01:44:42;;;;;;;6.88;3.70;;;20.00;90.70;;;;;;4208977;28;20058;-63
2021/09/25 01:47:04;;;;;;;9.77;4.05;;;20.00;90.60;;;;;;4208793;28;20055;-64
2021/09/25 01:49:39;;;;;;;7.78;3.53;;;20.00;90.80;;;;;;4207007;28;20048;-62
2021/09/25 01:52:02;;;;;;;8.35;3.95;;;20.00;90.70;;;;;;4208539;28;20044;-63
2021/09/25 01:54:24;;;;;;;8.93;3.72;;;20.00;90.70;;;;;;4208759;28;20130;-63
2021/09/25 01:56:47;;;;;;;10.57;4.38;;;20.00;90.70;;;;;;4208601;28;20044;-63
2021/09/25 01:59:10;;;;;;;8.27;3.53;;;20.00;90.80;;;;;;4207807;28;20502;-62
2021/09/25 02:01:32;;;;;;;8.63;3.17;;;20.00;90.80;;;;;;4225490;27;20040;-62
2021/09/25 02:03:54;;;;;;;5.15;3.15;;;20.00;90.80;;;;;;4225088;27;20040;-62
2021/09/25 02:06:16;;;;;;;10.13;4.30;;;20.00;90.70;;;;;;4225463;27;20053;-63
2021/09/25 02:08:42;;;;;;;5.15;3.42;;;20.00;90.70;;;;;;4225247;28;20088;-62
2021/09/25 02:11:04;;;;;;;9.10;3.78;;;20.00;90.90;;;;;;4225294;27;20047;-62
2021/09/25 02:13:28;;;;;;;10.68;3.53;;;20.00;90.90;;;;;;4225234;27;20070;-62
2021/09/25 02:15:50;;;;;;;8.63;4.18;;;20.00;90.90;;;;;;4225380;27;20414;-62
2021/09/25 02:18:13;;;;;;;11.27;3.85;;;20.00;90.80;;;;;;4224867;28;20046;-62
2021/09/25 02:20:35;;;;;;;7.82;3.90;;;20.00;90.90;;;;;;4224387;28;20053;-62
2021/09/25 02:22:57;;;;;;;11.40;4.55;;;20.00;90.90;;;;;;4225235;27;20079;-62
2021/09/25 02:25:20;;;;;;;12.55;3.72;;;20.00;90.90;;;;;;4224896;27;20036;-62
2021/09/25 02:27:42;;;;;;;5.90;3.30;;;20.00;90.90;;;;;;4224839;27;20058;-63
2021/09/25 02:30:07;;;;;;;7.15;3.80;;;20.00;90.90;;;;;;4225066;28;20094;-62
2021/09/25 02:32:29;;;;;;;6.55;3.38;;;20.00;91.00;;;;;;4224693;27;20148;-62
2021/09/25 02:34:51;;;;;;;7.75;3.95;;;20.00;90.90;;;;;;4224854;27;20515;-62
2021/09/25 02:37:13;;;;;;;8.20;3.63;;;20.00;90.90;;;;;;4224447;27;20047;-62
2021/09/25 02:39:36;;;;;;;9.43;4.18;;;20.00;90.90;;;;;;4224771;27;20055;-62
2021/09/25 02:41:59;;;;;;;7.78;3.67;;;20.00;91.00;;;;;;4224756;27;20051;-62
2021/09/25 02:44:21;;;;;;;10.27;3.97;;;20.00;91.00;;;;;;4224538;27;20150;-62
2021/09/25 02:46:47;;;;;;;6.85;3.70;;;20.00;90.90;;;;;;4224575;27;20048;-62
2021/09/25 02:49:09;;;;;;;7.65;4.00;;;19.90;91.00;;;;;;4224745;28;20051;-63
2021/09/25 02:51:31;;;;;;;9.10;3.70;;;20.00;91.00;;;;;;4224557;28;20044;-63
2021/09/25 02:53:53;;;;;;;6.53;3.50;;;20.00;91.00;;;;;;4224624;28;20047;-62
2021/09/25 02:56:15;;;;;;;6.18;3.42;;;20.00;91.10;;;;;;4224425;28;20130;-63
2021/09/25 02:58:38;;;;;;;6.95;3.50;;;20.00;91.00;;;;;;4224679;28;20413;-63
2021/09/25 03:01:00;;;;;;;6.30;3.67;;;20.00;91.00;;;;;;4223923;27;20043;-63
2021/09/25 03:03:24;;;;;;;7.07;3.72;;;20.00;91.00;;;;;;4224476;27;20048;-63
2021/09/25 03:05:46;;;;;;;8.05;3.55;;;20.00;91.00;;;;;;4224460;27;20519;-62
2021/09/25 03:08:08;;;;;;;8.70;3.65;;;20.00;91.00;;;;;;4224301;27;20481;-62
2021/09/25 03:10:30;;;;;;;8.48;3.97;;;20.00;91.00;;;;;;4224135;28;20456;-63
2021/09/25 03:12:52;;;;;;;5.70;3.08;;;20.00;91.10;;;;;;4224774;27;20552;-63
2021/09/25 03:15:14;;;;;;;5.68;3.08;;;20.00;91.10;;;;;;4224511;27;20046;-63
2021/09/25 03:17:36;;;;;;;7.47;3.78;;;20.00;91.10;;;;;;4224109;27;20056;-62
2021/09/25 03:20:00;;;;;;;7.18;3.20;;;20.00;91.00;;;;;;4223285;27;20070;-63
2021/09/25 03:22:23;;;;;;;7.97;3.53;;;20.00;91.10;;;;;;4224195;27;20043;-63
2021/09/25 03:24:46;;;;;;;5.97;2.88;;;20.00;91.10;;;;;;4224085;28;20054;-63
2021/09/25 03:27:08;;;;;;;6.55;3.05;;;20.00;91.20;;;;;;4223962;28;20062;-63
2021/09/25 03:29:30;;;;;;;8.90;4.07;;;20.00;91.10;;;;;;4224445;28;20036;-63
2021/09/25 03:31:53;;;;;;;9.32;3.45;;;20.00;91.10;;;;;;4224264;28;20413;-63
2021/09/25 03:34:15;;;;;;;7.38;3.58;;;20.00;91.10;;;;;;4210913;28;20071;-63
2021/09/25 03:36:39;;;;;;;7.40;3.53;;;20.00;91.10;;;;;;4220149;27;20047;-63
2021/09/25 03:39:01;;;;;;;8.90;3.80;;;20.00;91.10;;;;;;4227454;27;20138;-63
2021/09/25 03:41:23;;;;;;;7.57;3.08;;;20.00;91.20;;;;;;4227473;27;20131;-62
2021/09/25 03:43:50;;;;;;;5.25;3.28;;;19.90;91.10;;;;;;4226945;27;20051;-62
2021/09/25 03:46:12;;;;;;;5.57;3.28;;;20.00;91.10;;;;;;4227183;27;20083;-63
2021/09/25 03:48:34;;;;;;;7.28;3.63;;;20.00;91.10;;;;;;4227468;27;20074;-63
2021/09/25 03:50:56;;;;;;;5.93;3.55;;;20.00;91.20;;;;;;4227460;27;20059;-63
2021/09/25 03:53:19;;;;;;;11.07;3.65;;;19.90;91.10;;;;;;4227163;27;20053;-64
2021/09/25 03:55:42;;;;;;;6.53;3.50;;;20.00;91.20;;;;;;4225881;28;20142;-64
2021/09/25 03:58:04;;;;;;;5.22;3.20;;;20.00;91.10;;;;;;4227563;27;20141;-63
2021/09/25 04:00:26;;;;;;;10.40;3.85;;;19.90;91.10;;;;;;4227578;27;20151;-63
2021/09/25 04:02:50;;;;;;;7.00;3.50;;;20.00;91.20;;;;;;4226802;27;20444;-63
2021/09/25 04:05:12;;;;;;;6.82;3.58;;;19.90;91.10;;;;;;4227010;27;20075;-62
2021/09/25 04:07:34;;;;;;;7.85;3.10;;;19.90;91.10;;;;;;4227121;27;20055;-63
2021/09/25 04:09:58;;;;;;;6.88;3.08;;;19.90;91.20;;;;;;4227071;27;20066;-63
2021/09/25 04:12:20;;;;;;;10.57;3.58;;;19.90;91.10;;;;;;4226137;27;20051;-63
2021/09/25 04:14:42;;;;;;;7.45;4.00;;;19.90;91.10;;;;;;4227345;27;20074;-63
2021/09/25 04:17:04;;;;;;;7.18;3.90;;;19.90;91.10;;;;;;4227135;27;20054;-64
2021/09/25 04:19:26;;;;;;;5.32;3.95;;;20.00;91.20;;;;;;4227367;27;20108;-63
2021/09/25 04:21:49;;;;;;;8.32;3.72;;;19.90;91.10;;;;;;4226953;27;20047;-63
2021/09/25 04:24:11;;;;;;;9.32;3.92;;;19.90;91.50;;;;;;4226863;27;20075;-63
2021/09/25 04:26:34;;;;;;;6.03;3.22;;;20.00;91.60;;;;;;4209951;28;20556;-66
2021/09/25 04:28:57;;;;;;;5.68;3.47;;;19.90;91.20;;;;;;4210035;28;20076;-63
2021/09/25 04:31:20;;;;;;;8.23;3.60;;;19.90;91.20;;;;;;4220077;27;20417;-63
2021/09/25 04:33:42;;;;;;;10.75;3.97;;;19.90;91.10;;;;;;4227003;27;20054;-62
2021/09/25 04:36:04;;;;;;;7.05;3.83;;;19.90;91.20;;;;;;4226592;27;20043;-62
2021/09/25 04:38:26;;;;;;;7.47;3.38;;;19.90;91.20;;;;;;4226696;27;20444;-63
2021/09/25 04:40:48;;;;;;;8.70;3.92;;;19.90;91.10;;;;;;4226138;27;20051;-63
2021/09/25 04:43:12;;;;;;;9.52;3.50;;;19.90;91.20;;;;;;4226313;27;20051;-63
2021/09/25 04:45:34;;;;;;;8.40;4.00;;;19.90;91.20;;;;;;4226859;27;20519;-62
2021/09/25 04:47:59;;;;;;;9.57;3.80;;;19.90;91.20;;;;;;4226273;27;20055;-63
2021/09/25 04:50:21;;;;;;;11.00;4.45;;;19.90;91.20;;;;;;4226006;27;20047;-63
2021/09/25 04:52:43;;;;;;;11.02;3.85;;;19.90;91.20;;;;;;4226514;27;20058;-63
2021/09/25 04:55:07;;;;;;;8.85;4.38;;;19.90;91.20;;;;;;4226666;27;20519;-63
2021/09/25 04:57:29;;;;;;;11.05;3.95;;;19.90;91.20;;;;;;4225080;27;20429;-63
2021/09/25 04:59:52;;;;;;;9.25;3.88;;;19.90;91.20;;;;;;4226268;27;20055;-63
2021/09/25 05:02:14;;;;;;;9.98;4.18;;;19.90;91.30;;;;;;4226336;27;20051;-63
2021/09/25 05:04:36;;;;;;;9.80;4.22;;;19.90;91.20;;;;;;4226366;27;20417;-63
2021/09/25 05:06:59;;;;;;;10.77;4.40;;;19.90;91.20;;;;;;4226298;27;20047;-64
2021/09/25 05:09:22;;;;;;;10.88;4.47;;;19.90;91.20;;;;;;4226030;27;20100;-64
2021/09/25 05:11:44;;;;;;;11.38;4.25;;;19.90;91.20;;;;;;4225646;27;20047;-64
2021/09/25 05:14:06;;;;;;;10.02;4.18;;;19.90;91.20;;;;;;4192707;28;20052;-64
2021/09/25 05:16:30;;;;;;;9.35;4.15;;;19.90;91.20;;;;;;4207166;28;20571;-65
2021/09/25 05:18:52;;;;;;;9.30;4.20;;;19.90;91.30;;;;;;4208980;28;20048;-64
2021/09/25 05:21:14;;;;;;;8.30;4.38;;;19.90;91.30;;;;;;4209184;28;20051;-64
2021/09/25 05:23:36;;;;;;;10.82;4.43;;;19.90;91.30;;;;;;4192264;28;20133;-64
2021/09/25 05:25:58;;;;;;;9.73;4.65;;;19.90;91.30;;;;;;4192480;28;20053;-64
2021/09/25 05:28:20;;;;;;;9.82;4.53;;;19.90;91.40;;;;;;4192579;28;20044;-64
2021/09/25 05:30:42;;;;;;;12.88;4.90;;;19.90;91.20;;;;;;4208472;28;20040;-64
2021/09/25 05:33:07;;;;;;;8.45;5.05;;;19.90;91.30;;;;;;4209108;28;20044;-65
2021/09/25 05:35:29;;;;;;;7.97;4.70;;;19.90;91.40;;;;;;4193211;28;20504;-64
2021/09/25 05:37:52;;;;;;;10.30;4.57;;;19.90;91.50;;;;;;4225982;28;20105;-64
2021/09/25 05:40:15;;;;;;;7.20;4.50;;;20.00;91.60;;;;;;4225436;27;20050;-64
2021/09/25 05:42:37;;;;;;;10.63;5.13;;;20.00;91.40;;;;;;4224903;27;20088;-64
2021/09/25 05:44:59;;;;;;;7.80;4.95;;;20.00;91.40;;;;;;4225398;27;20061;-64
2021/09/25 05:47:22;;;;;;;7.00;4.57;;;20.00;91.30;;;;;;4208662;28;20050;-64
2021/09/25 05:49:46;;;;;;;15.70;5.47;;;20.00;91.30;;;;;;4213296;28;20051;-64
2021/09/25 05:52:09;;;;;;;11.18;5.40;;;20.00;91.30;;;;;;4225019;27;20053;-63
2021/09/25 05:54:30;;;;;;;6.63;4.32;;;20.00;91.20;;;;;;4225706;27;20047;-63
2021/09/25 05:56:53;;;;;;;10.40;4.93;;;20.00;91.20;;;;;;4225064;27;20078;-64
2021/09/25 05:59:14;;;;;;;12.25;5.22;;;20.00;91.20;;;;;;4225185;27;20055;-64
2021/09/25 06:01:37;;;;;;;10.60;4.95;;;20.00;91.20;;;;;;4225082;27;20093;-63
2021/09/25 06:03:59;;;;;;;8.73;4.97;;;20.00;91.30;;;;;;4224565;28;20043;-64
2021/09/25 06:06:23;;;;;;;8.77;5.28;;;20.00;91.30;;;;;;4224878;28;20059;-63
2021/09/25 06:08:45;;;;;;;10.60;4.97;;;19.90;91.30;;;;;;4223487;28;20558;-63
2021/09/25 06:11:07;;;;;;;8.20;4.80;;;19.90;91.30;;;;;;4224904;27;20493;-63
2021/09/25 06:13:29;;;;;;;12.50;5.22;;;19.90;91.30;;;;;;4224533;27;20052;-64
2021/09/25 06:15:50;;;;;;;11.25;4.32;;;19.90;91.30;;;;;;4225457;27;20057;-65
2021/09/25 06:18:13;;;;;;;8.75;4.82;;;19.90;91.40;;;;;;4225199;27;20532;-64
2021/09/25 06:20:35;;;;;;;10.02;4.75;;;19.90;91.40;;;;;;4225077;28;20059;-64
2021/09/25 06:22:59;;;;;;;10.65;5.05;;;19.90;91.30;;;;;;4219177;27;20890;-64
2021/09/25 06:25:21;;;;;;;9.05;4.80;;;19.90;91.40;;;;;;4225212;27;20058;-59
2021/09/25 06:27:43;;;;;;;7.93;3.95;;;19.90;91.30;;;;;;4224132;27;20074;-63
2021/09/25 06:30:07;;;;;;;10.00;4.68;;;19.90;91.20;;;;;;4225167;27;20089;-63
2021/09/25 06:32:30;;;;;;;9.90;4.97;;;19.90;91.20;;;;;;4224970;27;20082;-63
2021/09/25 06:34:52;;;;;;;13.68;5.28;;;19.90;91.20;;;;;;4224871;27;20043;-63
2021/09/25 06:37:15;;;;;;;8.10;4.07;;;19.90;91.20;;;;;;4225132;27;20133;-63
2021/09/25 06:39:38;;;;;;;10.32;4.82;;;19.90;91.10;;;;;;4224890;27;20059;-63
2021/09/25 06:42:00;;;;;;;8.93;4.43;;;19.90;91.10;;;;;;4222898;27;20836;-63
2021/09/25 06:44:24;;;;;;;9.27;4.78;;;19.90;91.10;;;;;;4207706;28;20044;-63
2021/09/25 06:46:46;;;;;;;9.77;5.13;;;19.90;91.00;;;;;;4213519;28;20160;-63
2021/09/25 06:49:08;;;;;;;8.38;4.55;;;19.90;91.00;;;;;;4224533;28;20062;-63
2021/09/25 06:51:30;;;;;;;12.55;5.20;;;19.90;91.00;;;;;;4224301;28;20050;-64
2021/09/25 06:53:53;;;;;;;8.88;4.85;;;19.90;92.60;;;;;;4207843;28;20131;-63
2021/09/25 06:56:16;;;;;;;15.45;4.43;;;19.90;93.40;;;;;;4207819;28;20122;-63
2021/09/25 06:58:39;;;;;;;8.15;4.68;;;20.00;93.60;;;;;;4207810;28;20101;-63
2021/09/25 07:01:01;;;;;;;7.68;4.57;;;20.00;93.60;;;;;;4216934;28;22437;-63
2021/09/25 07:03:23;;;;;;;8.00;4.57;;;20.00;93.60;;;;;;4224323;28;20500;-62
2021/09/25 07:05:45;;;;;;;10.25;4.63;;;20.00;93.90;;;;;;4224530;27;20044;-63
2021/09/25 07:08:08;;;;;;;11.82;4.80;;;20.00;93.50;;;;;;4227909;27;20070;-63
2021/09/25 07:10:30;;;;;;;10.77;4.65;;;20.00;93.20;;;;;;4228056;27;20056;-63
2021/09/25 07:12:53;;;;;;;11.23;5.32;;;20.00;93.10;;;;;;4228029;27;20104;-63
2021/09/25 07:15:15;;;;;;;11.05;5.43;;;20.10;93.00;;;;;;4227846;27;20065;-62
2021/09/25 07:17:38;;;;;;;8.18;4.68;;;20.00;92.80;;;;;;4227821;27;20071;-63
2021/09/25 07:20:00;;;;;;;9.10;4.80;;;20.00;92.60;;;;;;4227638;27;20497;-63
2021/09/25 07:22:21;;;;;;;7.10;5.13;;;20.00;92.60;;;;;;4226443;27;20052;-63
2021/09/25 07:24:43;;;;;;;9.68;4.25;;;20.00;92.50;;;;;;4227812;27;20051;-60
2021/09/25 07:27:06;;;;;;;11.90;5.97;;;20.00;92.40;;;;;;4227928;27;20093;-62
2021/09/25 07:29:29;;;;;;;13.80;5.35;;;20.00;92.20;;;;;;4226830;27;20052;-65
2021/09/25 07:31:52;;;;;;;10.43;5.28;;;20.00;92.10;;;;;;4210795;28;20036;-63
2021/09/25 07:34:14;;;;;;;9.77;5.10;;;20.00;92.00;;;;;;4210949;28;20044;-62
2021/09/25 07:36:36;;;;;;;9.93;5.80;;;20.10;92.00;;;;;;4210125;28;20059;-63
2021/09/25 07:38:58;;;;;;;8.45;5.20;;;20.10;92.00;;;;;;4226928;27;20054;-63
2021/09/25 07:41:20;;;;;;;10.73;5.20;;;20.10;91.90;;;;;;4227090;27;20043;-66
2021/09/25 07:43:42;;;;;;;11.38;5.38;;;20.10;91.80;;;;;;4225058;27;20047;-68
2021/09/25 07:46:06;;;;;;;9.63;4.63;;;20.10;91.80;;;;;;4227558;27;20093;-64
2021/09/25 07:48:28;;;;;;;7.47;5.20;;;20.10;91.80;;;;;;4212072;27;20097;-63
2021/09/25 07:50:50;;;;;;;11.27;5.07;;;20.20;91.80;;;;;;4213517;27;20539;-66
2021/09/25 07:53:13;;;;;;;11.55;5.80;;;20.20;91.90;;;;;;4224237;27;20040;-63
2021/09/25 07:55:35;;;;;;;10.50;6.05;;;20.20;91.80;;;;;;4227592;27;20067;-67
2021/09/25 07:57:57;;;;;;;7.85;4.82;;;20.20;91.70;;;;;;4227313;27;20044;-65
2021/09/25 08:00:20;;;;;;;11.45;5.43;;;20.30;92.10;;;;;;4227074;27;20412;-64
2021/09/25 08:02:44;;;;;;;8.18;5.03;;;20.30;91.70;;;;;;4227047;27;20055;-63
2021/09/25 08:05:07;;;;;;;13.07;6.07;;;20.30;91.70;;;;;;4227171;27;20108;-64
2021/09/25 08:07:29;;;;;;;11.07;5.40;;;20.30;91.70;;;;;;4227391;27;20044;-63
2021/09/25 08:09:51;;;;;;;8.25;5.82;;;20.30;91.60;;;;;;4226331;27;20097;-66
2021/09/25 08:12:14;;;;;;;11.40;5.57;;;20.30;92.00;;;;;;4226979;27;20557;-64
2021/09/25 08:14:36;;;;;;;8.43;5.00;;;20.40;91.60;;;;;;4226843;27;20051;-66
2021/09/25 08:16:58;;;;;;;12.10;5.90;;;20.40;91.60;;;;;;4226566;27;20044;-63
2021/09/25 08:19:21;;;;;;;9.80;5.57;;;20.40;91.60;;;;;;4225496;28;20493;-64
2021/09/25 08:21:44;;;;;;;9.40;4.90;;;20.40;91.60;;;;;;4227159;27;20138;-66
2021/09/25 08:24:05;;;;;;;7.65;5.63;;;20.40;91.60;;;;;;4226419;27;20122;-64
2021/09/25 08:26:27;;;;;;;11.10;5.53;;;20.40;91.50;;;;;;4210030;28;20436;-64
2021/09/25 08:28:50;;;;;;;10.88;5.82;;;20.40;91.50;;;;;;4210120;28;20148;-64
2021/09/25 08:31:12;;;;;;;9.23;6.20;;;20.40;91.40;;;;;;4210221;28;20048;-63
2021/09/25 08:33:34;;;;;;;8.70;5.28;;;20.40;91.50;;;;;;4218026;27;20055;-61
2021/09/25 08:35:57;;;;;;;8.55;5.50;;;20.40;91.50;;;;;;4226855;27;20459;-62
2021/09/25 08:38:19;;;;;;;10.63;5.60;;;20.40;91.50;;;;;;4226743;27;20120;-63
2021/09/25 08:40:42;;;;;;;9.93;6.00;;;20.40;91.50;;;;;;4226110;27;20071;-62
2021/09/25 08:43:04;;;;;;;10.35;6.03;;;20.40;91.50;;;;;;4226426;27;20063;-63
2021/09/25 08:45:27;;;;;;;10.82;5.53;;;20.40;91.50;;;;;;4226090;27;20062;-62
2021/09/25 08:47:49;;;;;;;10.30;5.45;;;20.50;91.50;;;;;;4226335;27;20048;-62
2021/09/25 08:50:13;;;;;;;10.50;5.50;;;20.40;91.40;;;;;;4213714;28;20420;-63
2021/09/25 08:52:37;;;;;;;8.65;5.30;;;20.40;91.40;;;;;;4226164;27;20044;-65
2021/09/25 08:54:59;;;;;;;11.77;6.00;;;20.40;91.30;;;;;;4226347;27;20101;-64
2021/09/25 08:57:21;;;;;;;9.13;5.07;;;20.40;91.30;;;;;;4226188;27;20047;-62
2021/09/25 08:59:43;;;;;;;7.82;5.03;;;20.40;91.30;;;;;;4225982;28;20450;-65
2021/09/25 09:02:13;;;;;;;9.10;4.72;;;20.50;91.40;;;;;;4225281;28;20059;-63
2021/09/25 09:04:44;;;;;;;7.07;5.40;;;20.50;91.50;;;;;;4225817;27;20413;-66
2021/09/25 09:07:14;;;;;;;7.72;5.00;;;20.50;91.40;;;;;;4224672;28;20043;-64
2021/09/25 09:09:43;;;;;;;11.25;5.07;;;20.50;91.50;;;;;;4225906;27;20476;-68
2021/09/25 09:12:06;;;;;;;9.05;5.05;;;20.50;91.50;;;;;;4225869;27;20043;-64
2021/09/25 09:14:41;;;;;;;9.52;5.70;;;20.50;91.40;;;;;;4226047;27;20039;-64
2021/09/25 09:17:03;;;;;;;8.30;5.32;;;20.50;91.40;;;;;;4225804;27;20059;-64
2021/09/25 09:19:35;;;;;;;10.88;4.85;;;20.50;91.30;;;;;;4226064;27;20054;-64
2021/09/25 09:22:04;;;;;;;8.13;4.10;;;20.50;91.20;;;;;;4225170;27;20463;-65
2021/09/25 09:24:27;;;;;;;9.48;4.38;;;20.50;91.20;;;;;;4225624;27;20131;-65
2021/09/25 09:26:50;;;;;;;7.85;5.22;;;20.50;91.30;;;;;;4226025;27;20481;-68
2021/09/25 09:29:13;;;;;;;10.45;5.32;;;20.50;91.40;;;;;;4225685;27;20130;-67
2021/09/25 09:31:36;;;;;;;6.72;5.93;;;20.60;91.30;;;;;;4224679;27;20477;-65
2021/09/25 09:33:59;;;;;;;9.32;5.45;;;20.60;91.40;;;;;;4225322;27;20486;-70
2021/09/25 09:36:25;;;;;;;11.52;5.70;;;20.60;91.40;;;;;;4224641;28;20047;-64
2021/09/25 09:38:52;;;;;;;9.05;6.20;;;20.60;91.40;;;;;;4225935;28;20057;-68
2021/09/25 09:41:15;;;;;;;7.95;5.97;;;20.60;91.30;;;;;;4224638;27;20132;-65
2021/09/25 09:43:38;;;;;;;10.73;6.57;;;20.60;91.20;;;;;;4225713;28;20048;-65
2021/09/25 09:46:01;;;;;;;12.80;5.75;;;20.70;91.30;;;;;;4225062;27;20044;-63
2021/09/25 09:48:23;;;;;;;8.75;5.95;;;20.70;91.20;;;;;;4225506;27;20055;-65
2021/09/25 09:50:45;;;;;;;9.63;6.10;;;20.70;91.30;;;;;;4225231;27;20386;-64
2021/09/25 09:53:12;;;;;;;7.50;6.07;;;20.70;91.30;;;;;;4225329;27;20054;-65
2021/09/25 09:55:39;;;;;;;10.05;5.90;;;20.70;91.20;;;;;;4225746;27;20956;-62
2021/09/25 09:58:02;;;;;;;7.50;5.78;;;20.70;91.10;;;;;;4225532;27;20563;-64
2021/09/25 10:00:25;;;;;;;8.85;5.68;;;20.70;91.10;;;;;;4225246;28;20053;-63
2021/09/25 10:02:47;;;;;;;10.10;6.70;;;20.80;91.20;;;;;;4225263;28;20109;-60
2021/09/25 10:05:11;;;;;;;9.68;5.35;;;20.80;91.20;;;;;;4225214;28;20048;-62
2021/09/25 10:07:34;;;;;;;7.93;5.35;;;20.80;91.10;;;;;;4225442;28;20135;-61
2021/09/25 10:09:56;;;;;;;9.18;6.43;;;20.80;91.10;;;;;;4224697;27;20516;-62
2021/09/25 10:12:18;;;;;;;11.05;6.10;;;20.80;91.00;;;;;;4225014;27;20554;-60
2021/09/25 10:14:42;;;;;;;6.30;5.35;;;20.80;91.00;;;;;;4225242;27;20048;-61
2021/09/25 10:17:08;;;;;;;10.02;6.15;;;20.80;91.10;;;;;;4223969;27;20051;-64
2021/09/25 10:19:32;;;;;;;8.95;5.47;;;20.90;91.10;;;;;;4225129;27;20201;-62
2021/09/25 10:21:57;;;;;;;7.70;5.90;;;20.90;91.00;;;;;;4208476;27;20060;-63
2021/09/25 10:24:24;;;;;;;15.02;5.70;;;20.90;90.90;;;;;;4208058;28;20129;-64
2021/09/25 10:26:47;;;;;;;7.00;5.20;;;20.90;90.90;;;;;;4207745;28;20052;-63
2021/09/25 10:29:09;;;;;;;10.00;6.43;;;20.90;90.80;;;;;;4208273;28;20048;-63
2021/09/25 10:31:32;;;;;;;6.25;5.40;;;20.90;90.90;;;;;;4207989;28;20490;-63
2021/09/25 10:34:16;;;;;;;8.48;4.90;;;20.90;90.80;;;;;;4207911;28;20480;-63
2021/09/25 10:36:42;;;;;;;7.57;4.78;;;21.00;90.90;;;;;;4208026;28;20406;-64
2021/09/25 10:39:23;;;;;;;10.63;6.28;;;21.00;90.80;;;;;;4208015;28;20139;-62
2021/09/25 10:41:46;;;;;;;6.60;4.95;;;21.00;90.90;;;;;;4223986;27;20056;-62
2021/09/25 10:44:24;;;;;;;8.50;5.25;;;21.00;90.80;;;;;;4224546;27;20370;-62
2021/09/25 10:46:46;;;;;;;6.97;5.25;;;21.00;90.90;;;;;;4208793;28;20540;-63
2021/09/25 10:49:15;;;;;;;5.65;4.95;;;21.00;90.80;;;;;;4207760;28;20094;-63
2021/09/25 10:51:42;;;;;;;7.22;5.07;;;21.00;90.90;;;;;;4207783;28;20106;-63
2021/09/25 10:54:05;;;;;;;8.40;5.00;;;21.10;90.80;;;;;;4207007;28;20048;-62
2021/09/25 10:56:28;;;;;;;7.88;5.38;;;21.10;90.70;;;;;;4207469;28;20075;-63
2021/09/25 10:58:55;;;;;;;6.95;4.63;;;21.10;90.70;;;;;;4207843;28;20043;-64
2021/09/25 11:01:18;;;;;;;5.45;4.43;;;21.10;90.70;;;;;;4206646;28;20043;-63
2021/09/25 11:04:04;;;;;;;7.82;4.65;;;21.10;90.70;;;;;;4207217;28;20076;-62
2021/09/25 11:06:42;;;;;;;6.30;4.60;;;21.20;90.90;;;;;;4222979;27;20047;-63
2021/09/25 11:09:06;;;;;;;8.05;5.05;;;21.20;91.00;;;;;;4224559;27;20051;-63
2021/09/25 11:11:34;;;;;;;5.90;4.90;;;21.30;90.90;;;;;;4224405;27;20040;-64
2021/09/25 11:14:10;;;;;;;10.05;5.20;;;21.30;90.90;;;;;;4224110;27;20058;-62
2021/09/25 11:17:01;;;;;;;7.88;4.75;;;21.30;90.90;;;;;;4222543;28;20117;-63
2021/09/25 11:19:38;;;;;;;8.00;4.90;;;21.40;90.80;;;;;;4205465;28;20047;-63
2021/09/25 11:22:04;;;;;;;8.70;5.28;;;21.40;90.80;;;;;;4223277;28;20135;-63
2021/09/25 11:24:27;;;;;;;9.15;5.15;;;21.40;90.70;;;;;;4224618;28;20127;-63
2021/09/25 11:26:48;;;;;;;6.20;4.93;;;21.40;90.70;;;;;;4223976;28;20036;-63
2021/09/25 11:29:12;;;;;;;7.32;4.35;;;21.40;90.60;;;;;;4223882;28;20048;-63
2021/09/25 11:31:34;;;;;;;6.25;3.75;;;21.50;90.60;;;;;;4224269;28;20051;-63
2021/09/25 11:33:56;;;;;;;5.97;4.25;;;21.50;90.30;;;;;;4223492;28;20447;-63
2021/09/25 11:36:20;;;;;;;7.35;4.63;;;21.50;90.20;;;;;;4222572;28;20051;-64
2021/09/25 11:38:47;;;;;;;8.82;5.20;;;21.50;90.20;;;;;;4224500;28;20052;-63
2021/09/25 11:41:14;;;;;;;9.00;4.75;;;21.50;90.20;;;;;;4224076;28;20060;-62
2021/09/25 11:43:36;;;;;;;7.22;4.75;;;21.50;90.20;;;;;;4223711;28;20043;-63
2021/09/25 11:45:59;;;;;;;8.18;4.55;;;21.50;90.20;;;;;;4224521;28;20048;-63
2021/09/25 11:48:25;;;;;;;9.98;5.68;;;21.50;90.20;;;;;;4223827;28;20462;-63
2021/09/25 11:50:50;;;;;;;6.95;4.25;;;21.60;90.20;;;;;;4224064;28;20050;-62
2021/09/25 11:53:15;;;;;;;6.88;4.63;;;21.50;90.20;;;;;;4223571;28;20051;-63
2021/09/25 11:55:39;;;;;;;7.68;4.75;;;21.50;90.10;;;;;;4227536;27;20144;-64
2021/09/25 11:58:05;;;;;;;5.28;4.40;;;21.50;90.10;;;;;;4227753;27;20526;-65
2021/09/25 12:00:30;;;;;;;9.20;4.95;;;21.50;90.10;;;;;;4226254;27;20054;-62
2021/09/25 12:02:55;;;;;;;7.55;4.88;;;21.50;90.10;;;;;;4227143;27;20489;-63
2021/09/25 12:05:30;;;;;;;6.32;4.85;;;21.50;90.10;;;;;;4227052;28;20130;-63
2021/09/25 12:07:53;;;;;;;8.45;5.47;;;21.50;90.10;;;;;;4226848;28;20127;-63
2021/09/25 12:10:23;;;;;;;5.57;5.07;;;21.50;90.10;;;;;;4227012;27;20047;-63
2021/09/25 12:12:47;;;;;;;7.32;4.75;;;21.50;90.20;;;;;;4227205;27;20054;-63
2021/09/25 12:15:12;;;;;;;5.55;4.10;;;21.50;90.10;;;;;;4227004;27;20055;-63
2021/09/25 12:17:34;;;;;;;5.13;3.20;;;21.50;90.10;;;;;;4227126;27;20051;-63
2021/09/25 12:20:15;;;;;;;7.40;3.95;;;21.40;90.00;;;;;;4226975;27;20511;-63
2021/09/25 12:22:42;;;;;;;6.83;3.93;;;21.40;90.00;;;;;;4226983;27;20563;-63